< < Back
Terminal Aerodrome Forecast


Current Version              Previous Versions:   1  2  3  4  5  6  7  8  9  

Terminal Aerodrome Forecast

750
FTUS42 KMLB 231100
TAFDAB
TAF
KDAB 231137Z 2312/2412 25005KT P6SM FEW007
      TEMPO 2312/2313 5SM BR
     FM231800 05008KT P6SM SCT050=

Latest METAR

453
SAUS80 KWBC 241000 CCA
MTRDAB
METAR KDAB 240953Z 00000KT 4SM BR CLR 17/17 A2995 RMK AO2 SLP142
T01720167


USA.gov is the U.S. government's official web portal to all federal, state and local government web resources and services.